sensor_id;sensor_type;location;lat;lon;timestamp;temperature;humidity
33460;DHT22;19795;53.160;6.612;2022-10-16T06:36:15;12.00;99.90
33460;DHT22;19795;53.160;6.612;2022-10-16T06:38:41;12.10;99.90
33460;DHT22;19795;53.160;6.612;2022-10-16T06:43:43;12.20;99.90
33460;DHT22;19795;53.160;6.612;2022-10-16T06:46:14;12.30;99.90
33460;DHT22;19795;53.160;6.612;2022-10-16T06:48:40;12.30;99.90
33460;DHT22;19795;53.160;6.612;2022-10-16T06:51:12;12.40;99.90
33460;DHT22;19795;53.160;6.612;2022-10-16T06:53:41;12.40;99.90
33460;DHT22;19795;53.160;6.612;2022-10-16T06:58:37;12.50;99.90
33460;DHT22;19795;53.160;6.612;2022-10-16T07:01:04;12.60;99.90
33460;DHT22;19795;53.160;6.612;2022-10-16T07:03:29;12.60;99.90
33460;DHT22;19795;53.160;6.612;2022-10-16T07:05:55;12.70;99.90
33460;DHT22;19795;53.160;6.612;2022-10-16T07:08:21;12.60;99.90
33460;DHT22;19795;53.160;6.612;2022-10-16T07:10:47;12.60;99.90
33460;DHT22;19795;53.160;6.612;2022-10-16T07:13:13;12.60;99.90
33460;DHT22;19795;53.160;6.612;2022-10-16T07:15:39;12.60;99.90
33460;DHT22;19795;53.160;6.612;2022-10-16T07:18:05;12.60;99.90
33460;DHT22;19795;53.160;6.612;2022-10-16T07:20:31;12.70;99.90
33460;DHT22;19795;53.160;6.612;2022-10-16T07:22:57;12.70;99.90
33460;DHT22;19795;53.160;6.612;2022-10-16T07:25:22;12.70;99.90
33460;DHT22;19795;53.160;6.612;2022-10-16T07:27:48;12.80;99.90
33460;DHT22;19795;53.160;6.612;2022-10-16T07:30:13;12.80;99.90
33460;DHT22;19795;53.160;6.612;2022-10-16T07:32:39;12.80;99.90
33460;DHT22;19795;53.160;6.612;2022-10-16T07:35:05;13.00;99.90
33460;DHT22;19795;53.160;6.612;2022-10-16T07:37:31;12.90;99.90
33460;DHT22;19795;53.160;6.612;2022-10-16T07:39:56;12.90;99.90
33460;DHT22;19795;53.160;6.612;2022-10-16T07:42:22;12.80;99.90
33460;DHT22;19795;53.160;6.612;2022-10-16T07:44:48;12.80;99.90
33460;DHT22;19795;53.160;6.612;2022-10-16T07:47:13;12.80;99.90
33460;DHT22;19795;53.160;6.612;2022-10-16T07:49:39;12.90;99.90
33460;DHT22;19795;53.160;6.612;2022-10-16T07:52:04;12.90;99.90
33460;DHT22;19795;53.160;6.612;2022-10-16T07:54:30;13.10;99.90
33460;DHT22;19795;53.160;6.612;2022-10-16T07:56:56;13.30;99.90
33460;DHT22;19795;53.160;6.612;2022-10-16T07:59:21;13.50;99.90
33460;DHT22;19795;53.160;6.612;2022-10-16T08:01:49;13.70;99.90
33460;DHT22;19795;53.160;6.612;2022-10-16T08:04:14;13.90;99.90
33460;DHT22;19795;53.160;6.612;2022-10-16T08:06:41;14.10;99.90
33460;DHT22;19795;53.160;6.612;2022-10-16T08:09:07;14.20;99.90
33460;DHT22;19795;53.160;6.612;2022-10-16T08:11:33;14.20;99.90
33460;DHT22;19795;53.160;6.612;2022-10-16T08:13:59;14.20;99.90
33460;DHT22;19795;53.160;6.612;2022-10-16T08:16:24;14.20;99.90
33460;DHT22;19795;53.160;6.612;2022-10-16T08:18:50;13.90;99.90
33460;DHT22;19795;53.160;6.612;2022-10-16T08:21:19;13.70;99.90
33460;DHT22;19795;53.160;6.612;2022-10-16T08:23:45;13.70;99.90
33460;DHT22;19795;53.160;6.612;2022-10-16T08:26:11;13.80;99.90
33460;DHT22;19795;53.160;6.612;2022-10-16T08:28:38;13.80;99.90
33460;DHT22;19795;53.160;6.612;2022-10-16T08:31:12;13.70;99.90
33460;DHT22;19795;53.160;6.612;2022-10-16T08:33:40;13.70;99.90
33460;DHT22;19795;53.160;6.612;2022-10-16T08:36:06;13.70;99.90
33460;DHT22;19795;53.160;6.612;2022-10-16T08:38:32;13.80;99.90
33460;DHT22;19795;53.160;6.612;2022-10-16T08:47:15;14.10;99.90
33460;DHT22;19795;53.160;6.612;2022-10-16T08:49:46;14.00;99.90
33460;DHT22;19795;53.160;6.612;2022-10-16T08:52:15;14.00;99.90
33460;DHT22;19795;53.160;6.612;2022-10-16T08:54:44;14.30;99.90
33460;DHT22;19795;53.160;6.612;2022-10-16T08:57:14;14.60;99.90
33460;DHT22;19795;53.160;6.612;2022-10-16T08:59:41;14.60;99.90
33460;DHT22;19795;53.160;6.612;2022-10-16T09:16:19;15.20;99.90
33460;DHT22;19795;53.160;6.612;2022-10-16T09:19:46;15.50;99.90
33460;DHT22;19795;53.160;6.612;2022-10-16T09:22:14;15.80;99.90
33460;DHT22;19795;53.160;6.612;2022-10-16T09:24:40;16.20;99.90
33460;DHT22;19795;53.160;6.612;2022-10-16T09:27:11;16.20;99.90
33460;DHT22;19795;53.160;6.612;2022-10-16T09:29:36;16.20;99.90
33460;DHT22;19795;53.160;6.612;2022-10-16T09:32:19;16.60;99.90
33460;DHT22;19795;53.160;6.612;2022-10-16T09:34:51;16.60;99.90
33460;DHT22;19795;53.160;6.612;2022-10-16T09:37:19;16.40;99.90
33460;DHT22;19795;53.160;6.612;2022-10-16T09:39:53;16.20;99.90
33460;DHT22;19795;53.160;6.612;2022-10-16T09:44:51;16.60;99.90
33460;DHT22;19795;53.160;6.612;2022-10-16T09:47:21;16.30;99.90
33460;DHT22;19795;53.160;6.612;2022-10-16T09:50:03;15.70;99.90
33460;DHT22;19795;53.160;6.612;2022-10-16T09:52:31;15.50;99.90
33460;DHT22;19795;53.160;6.612;2022-10-16T09:55:02;15.80;99.90
33460;DHT22;19795;53.160;6.612;2022-10-16T09:57:37;16.40;99.90
33460;DHT22;19795;53.160;6.612;2022-10-16T10:00:08;16.50;99.90
33460;DHT22;19795;53.160;6.612;2022-10-16T10:02:35;16.20;99.90
33460;DHT22;19795;53.160;6.612;2022-10-16T10:05:02;16.00;99.90
33460;DHT22;19795;53.160;6.612;2022-10-16T10:07:38;16.10;99.90
33460;DHT22;19795;53.160;6.612;2022-10-16T10:10:05;16.50;99.90
33460;DHT22;19795;53.160;6.612;2022-10-16T10:12:32;17.00;99.90
33460;DHT22;19795;53.160;6.612;2022-10-16T10:15:13;17.30;99.90
33460;DHT22;19795;53.160;6.612;2022-10-16T10:17:47;17.50;99.90
33460;DHT22;19795;53.160;6.612;2022-10-16T10:20:32;17.70;99.90
33460;DHT22;19795;53.160;6.612;2022-10-16T10:23:00;17.40;99.90
33460;DHT22;19795;53.160;6.612;2022-10-16T10:25:37;17.50;99.90
33460;DHT22;19795;53.160;6.612;2022-10-16T10:30:56;17.10;99.90
33460;DHT22;19795;53.160;6.612;2022-10-16T10:33:33;17.00;99.90
33460;DHT22;19795;53.160;6.612;2022-10-16T10:49:49;17.60;99.90
33460;DHT22;19795;53.160;6.612;2022-10-16T10:55:15;17.30;99.90
33460;DHT22;19795;53.160;6.612;2022-10-16T11:01:09;17.60;99.90
33460;DHT22;19795;53.160;6.612;2022-10-16T11:03:51;17.40;99.90
33460;DHT22;19795;53.160;6.612;2022-10-16T11:09:12;16.90;99.90
33460;DHT22;19795;53.160;6.612;2022-10-16T11:11:50;16.80;99.90
33460;DHT22;19795;53.160;6.612;2022-10-16T11:14:38;16.90;99.90
33460;DHT22;19795;53.160;6.612;2022-10-16T11:17:32;16.70;99.90
33460;DHT22;19795;53.160;6.612;2022-10-16T11:20:05;16.40;99.90
33460;DHT22;19795;53.160;6.612;2022-10-16T11:22:54;16.60;99.90
33460;DHT22;19795;53.160;6.612;2022-10-16T11:25:27;16.90;99.90
33460;DHT22;19795;53.160;6.612;2022-10-16T11:30:25;17.30;99.90
33460;DHT22;19795;53.160;6.612;2022-10-16T11:38:30;16.90;99.90
33460;DHT22;19795;53.160;6.612;2022-10-16T11:41:03;17.10;99.90
33460;DHT22;19795;53.160;6.612;2022-10-16T11:43:38;17.10;99.90
33460;DHT22;19795;53.160;6.612;2022-10-16T11:46:17;17.00;99.90
33460;DHT22;19795;53.160;6.612;2022-10-16T11:48:54;16.70;99.90
33460;DHT22;19795;53.160;6.612;2022-10-16T11:51:39;16.30;99.90
33460;DHT22;19795;53.160;6.612;2022-10-16T11:54:22;16.10;99.90
33460;DHT22;19795;53.160;6.612;2022-10-16T11:56:55;15.90;99.90
33460;DHT22;19795;53.160;6.612;2022-10-16T11:59:42;16.10;99.90
33460;DHT22;19795;53.160;6.612;2022-10-16T12:05:20;16.00;99.90
33460;DHT22;19795;53.160;6.612;2022-10-16T12:08:02;15.80;99.90
33460;DHT22;19795;53.160;6.612;2022-10-16T12:10:31;15.50;99.90
33460;DHT22;19795;53.160;6.612;2022-10-16T12:12:59;15.20;99.90
33460;DHT22;19795;53.160;6.612;2022-10-16T12:15:26;15.20;99.90
33460;DHT22;19795;53.160;6.612;2022-10-16T12:17:53;15.40;99.90
33460;DHT22;19795;53.160;6.612;2022-10-16T12:20:30;15.90;99.90
33460;DHT22;19795;53.160;6.612;2022-10-16T12:23:02;16.50;99.90
33460;DHT22;19795;53.160;6.612;2022-10-16T12:25:34;16.90;99.90
33460;DHT22;19795;53.160;6.612;2022-10-16T12:30:42;17.50;99.90
33460;DHT22;19795;53.160;6.612;2022-10-16T12:33:27;17.40;99.90
33460;DHT22;19795;53.160;6.612;2022-10-16T12:35:54;17.50;99.90
33460;DHT22;19795;53.160;6.612;2022-10-16T12:38:21;17.80;99.90
33460;DHT22;19795;53.160;6.612;2022-10-16T12:41:00;17.90;99.90
33460;DHT22;19795;53.160;6.612;2022-10-16T12:43:36;17.90;99.90
33460;DHT22;19795;53.160;6.612;2022-10-16T12:48:40;17.60;99.90
33460;DHT22;19795;53.160;6.612;2022-10-16T12:54:11;17.30;99.90
33460;DHT22;19795;53.160;6.612;2022-10-16T13:02:00;16.70;99.90
33460;DHT22;19795;53.160;6.612;2022-10-16T13:11:11;16.40;99.90
33460;DHT22;19795;53.160;6.612;2022-10-16T13:14:01;16.30;99.90
33460;DHT22;19795;53.160;6.612;2022-10-16T13:17:03;16.40;99.90
33460;DHT22;19795;53.160;6.612;2022-10-16T13:25:22;17.00;99.90
33460;DHT22;19795;53.160;6.612;2022-10-16T13:28:10;17.20;99.90
33460;DHT22;19795;53.160;6.612;2022-10-16T13:30:42;17.20;99.90
33460;DHT22;19795;53.160;6.612;2022-10-16T13:33:25;17.50;99.90
33460;DHT22;19795;53.160;6.612;2022-10-16T13:35:55;17.40;99.90
33460;DHT22;19795;53.160;6.612;2022-10-16T13:38:23;17.60;99.90
33460;DHT22;19795;53.160;6.612;2022-10-16T13:40:55;17.70;99.90
33460;DHT22;19795;53.160;6.612;2022-10-16T13:43:27;17.90;99.90
33460;DHT22;19795;53.160;6.612;2022-10-16T13:48:25;17.60;99.90
33460;DHT22;19795;53.160;6.612;2022-10-16T13:53:30;17.40;99.90
33460;DHT22;19795;53.160;6.612;2022-10-16T13:55:56;17.20;99.90
33460;DHT22;19795;53.160;6.612;2022-10-16T13:58:22;17.00;99.90
33460;DHT22;19795;53.160;6.612;2022-10-16T14:01:00;17.00;99.90
33460;DHT22;19795;53.160;6.612;2022-10-16T14:03:27;16.90;99.90
33460;DHT22;19795;53.160;6.612;2022-10-16T14:06:00;16.70;99.90
33460;DHT22;19795;53.160;6.612;2022-10-16T14:08:28;16.50;99.90
33460;DHT22;19795;53.160;6.612;2022-10-16T14:10:56;16.50;99.90
33460;DHT22;19795;53.160;6.612;2022-10-16T14:13:37;16.30;99.90
33460;DHT22;19795;53.160;6.612;2022-10-16T14:16:27;16.40;99.90
33460;DHT22;19795;53.160;6.612;2022-10-16T14:18:57;16.60;99.90
33460;DHT22;19795;53.160;6.612;2022-10-16T14:21:24;16.60;99.90
33460;DHT22;19795;53.160;6.612;2022-10-16T14:23:52;16.40;99.90
33460;DHT22;19795;53.160;6.612;2022-10-16T14:26:20;16.40;99.90
33460;DHT22;19795;53.160;6.612;2022-10-16T14:28:47;16.40;99.90
33460;DHT22;19795;53.160;6.612;2022-10-16T14:34:22;15.90;99.90
33460;DHT22;19795;53.160;6.612;2022-10-16T14:36:48;15.70;99.90
33460;DHT22;19795;53.160;6.612;2022-10-16T14:39:19;15.40;99.90
33460;DHT22;19795;53.160;6.612;2022-10-16T14:41:50;15.20;99.90
33460;DHT22;19795;53.160;6.612;2022-10-16T14:44:28;15.10;99.90
33460;DHT22;19795;53.160;6.612;2022-10-16T14:46:55;15.00;99.90
33460;DHT22;19795;53.160;6.612;2022-10-16T14:49:22;15.00;99.90
33460;DHT22;19795;53.160;6.612;2022-10-16T14:51:48;14.90;99.90
33460;DHT22;19795;53.160;6.612;2022-10-16T14:54:18;14.80;99.90
33460;DHT22;19795;53.160;6.612;2022-10-16T14:56:55;14.70;99.90
33460;DHT22;19795;53.160;6.612;2022-10-16T14:59:34;14.60;99.90
33460;DHT22;19795;53.160;6.612;2022-10-16T15:02:09;14.70;99.90
33460;DHT22;19795;53.160;6.612;2022-10-16T15:04:38;14.60;99.90
33460;DHT22;19795;53.160;6.612;2022-10-16T15:07:04;14.70;99.90
33460;DHT22;19795;53.160;6.612;2022-10-16T15:09:30;14.70;99.90
33460;DHT22;19795;53.160;6.612;2022-10-16T15:11:55;14.80;99.90
33460;DHT22;19795;53.160;6.612;2022-10-16T15:14:21;14.80;99.90
33460;DHT22;19795;53.160;6.612;2022-10-16T15:16:46;14.80;99.90
33460;DHT22;19795;53.160;6.612;2022-10-16T15:19:12;14.80;99.90
33460;DHT22;19795;53.160;6.612;2022-10-16T15:21:37;14.70;99.90
33460;DHT22;19795;53.160;6.612;2022-10-16T15:24:09;14.70;99.90
33460;DHT22;19795;53.160;6.612;2022-10-16T15:26:36;14.60;99.90
33460;DHT22;19795;53.160;6.612;2022-10-16T15:29:02;14.70;99.90
33460;DHT22;19795;53.160;6.612;2022-10-16T15:31:27;14.60;99.90
33460;DHT22;19795;53.160;6.612;2022-10-16T15:33:54;14.60;99.90
33460;DHT22;19795;53.160;6.612;2022-10-16T15:36:27;14.60;99.90
33460;DHT22;19795;53.160;6.612;2022-10-16T15:38:54;14.50;99.90
33460;DHT22;19795;53.160;6.612;2022-10-16T15:41:20;14.40;99.90
33460;DHT22;19795;53.160;6.612;2022-10-16T15:43:48;14.20;99.90
33460;DHT22;19795;53.160;6.612;2022-10-16T15:46:17;14.20;99.90
33460;DHT22;19795;53.160;6.612;2022-10-16T15:48:42;14.10;99.90
33460;DHT22;19795;53.160;6.612;2022-10-16T15:51:08;14.00;99.90
33460;DHT22;19795;53.160;6.612;2022-10-16T15:53:35;13.90;99.90
33460;DHT22;19795;53.160;6.612;2022-10-16T15:56:05;13.80;99.90
33460;DHT22;19795;53.160;6.612;2022-10-16T15:58:31;13.70;99.90
33460;DHT22;19795;53.160;6.612;2022-10-16T16:00:57;13.60;99.90
33460;DHT22;19795;53.160;6.612;2022-10-16T16:03:25;13.50;99.90
33460;DHT22;19795;53.160;6.612;2022-10-16T16:05:52;13.30;99.90
33460;DHT22;19795;53.160;6.612;2022-10-16T16:08:17;13.20;99.90
33460;DHT22;19795;53.160;6.612;2022-10-16T16:10:43;13.10;99.90
33460;DHT22;19795;53.160;6.612;2022-10-16T16:13:09;13.00;99.90
33460;DHT22;19795;53.160;6.612;2022-10-16T16:15:36;12.90;99.90
33460;DHT22;19795;53.160;6.612;2022-10-16T16:18:03;12.80;99.90
33460;DHT22;19795;53.160;6.612;2022-10-16T16:20:31;12.60;99.90
33460;DHT22;19795;53.160;6.612;2022-10-16T16:22:57;12.50;99.90
33460;DHT22;19795;53.160;6.612;2022-10-16T16:25:22;12.30;99.90
33460;DHT22;19795;53.160;6.612;2022-10-16T16:27:48;12.30;99.90
33460;DHT22;19795;53.160;6.612;2022-10-16T16:30:13;12.30;99.90
33460;DHT22;19795;53.160;6.612;2022-10-16T16:32:39;12.20;99.90
33460;DHT22;19795;53.160;6.612;2022-10-16T16:35:05;12.10;99.90
33460;DHT22;19795;53.160;6.612;2022-10-16T16:37:31;12.10;99.90
33460;DHT22;19795;53.160;6.612;2022-10-16T16:39:57;12.00;99.90
33460;DHT22;19795;53.160;6.612;2022-10-16T16:42:25;12.00;99.90
33460;DHT22;19795;53.160;6.612;2022-10-16T16:44:51;11.90;99.90
33460;DHT22;19795;53.160;6.612;2022-10-16T16:47:16;11.90;99.90
33460;DHT22;19795;53.160;6.612;2022-10-16T16:49:42;11.80;99.90
33460;DHT22;19795;53.160;6.612;2022-10-16T16:52:08;11.60;99.90
33460;DHT22;19795;53.160;6.612;2022-10-16T16:54:33;11.60;99.90
33460;DHT22;19795;53.160;6.612;2022-10-16T16:56:59;11.50;99.90
33460;DHT22;19795;53.160;6.612;2022-10-16T16:59:25;11.50;99.90
33460;DHT22;19795;53.160;6.612;2022-10-16T17:01:50;11.50;99.90
33460;DHT22;19795;53.160;6.612;2022-10-16T17:04:16;11.40;99.90
33460;DHT22;19795;53.160;6.612;2022-10-16T17:06:42;11.30;99.90
33460;DHT22;19795;53.160;6.612;2022-10-16T17:09:08;11.30;99.90
33460;DHT22;19795;53.160;6.612;2022-10-16T17:11:35;11.20;99.90
33460;DHT22;19795;53.160;6.612;2022-10-16T17:14:01;11.10;99.90
33460;DHT22;19795;53.160;6.612;2022-10-16T17:16:30;11.00;99.90
33460;DHT22;19795;53.160;6.612;2022-10-16T17:19:05;10.90;99.90
33460;DHT22;19795;53.160;6.612;2022-10-16T17:21:31;11.00;99.90
33460;DHT22;19795;53.160;6.612;2022-10-16T17:23:58;10.90;99.90
33460;DHT22;19795;53.160;6.612;2022-10-16T17:26:23;10.70;99.90
33460;DHT22;19795;53.160;6.612;2022-10-16T17:28:54;10.70;99.90
33460;DHT22;19795;53.160;6.612;2022-10-16T17:31:22;10.70;99.90
33460;DHT22;19795;53.160;6.612;2022-10-16T17:33:48;10.70;99.90
33460;DHT22;19795;53.160;6.612;2022-10-16T17:36:14;10.70;99.90
33460;DHT22;19795;53.160;6.612;2022-10-16T17:38:41;10.70;99.90
33460;DHT22;19795;53.160;6.612;2022-10-16T17:41:15;10.70;99.90
33460;DHT22;19795;53.160;6.612;2022-10-16T17:43:41;10.70;99.90
33460;DHT22;19795;53.160;6.612;2022-10-16T17:46:08;10.80;99.90
33460;DHT22;19795;53.160;6.612;2022-10-16T17:48:43;10.80;99.90
33460;DHT22;19795;53.160;6.612;2022-10-16T17:51:12;10.90;99.90
33460;DHT22;19795;53.160;6.612;2022-10-16T17:53:38;10.90;99.90
33460;DHT22;19795;53.160;6.612;2022-10-16T17:56:05;10.70;99.90
33460;DHT22;19795;53.160;6.612;2022-10-16T17:58:31;10.60;99.90
33460;DHT22;19795;53.160;6.612;2022-10-16T18:00:57;10.60;99.90
33460;DHT22;19795;53.160;6.612;2022-10-16T18:03:23;10.60;99.90
33460;DHT22;19795;53.160;6.612;2022-10-16T18:05:51;10.60;99.90
33460;DHT22;19795;53.160;6.612;2022-10-16T18:08:17;10.50;99.90
33460;DHT22;19795;53.160;6.612;2022-10-16T18:10:47;10.70;99.90
33460;DHT22;19795;53.160;6.612;2022-10-16T18:13:14;10.70;99.90
33460;DHT22;19795;53.160;6.612;2022-10-16T18:15:40;10.60;99.90
33460;DHT22;19795;53.160;6.612;2022-10-16T18:18:05;10.60;99.90
33460;DHT22;19795;53.160;6.612;2022-10-16T18:20:31;10.60;99.90
33460;DHT22;19795;53.160;6.612;2022-10-16T18:22:57;10.60;99.90
33460;DHT22;19795;53.160;6.612;2022-10-16T18:25:23;10.60;99.90
33460;DHT22;19795;53.160;6.612;2022-10-16T18:27:48;10.50;99.90
33460;DHT22;19795;53.160;6.612;2022-10-16T18:30:14;10.50;99.90
33460;DHT22;19795;53.160;6.612;2022-10-16T18:32:39;10.50;99.90
33460;DHT22;19795;53.160;6.612;2022-10-16T18:35:05;10.50;99.90
33460;DHT22;19795;53.160;6.612;2022-10-16T18:37:34;10.50;99.90
33460;DHT22;19795;53.160;6.612;2022-10-16T18:39:59;10.50;99.90
33460;DHT22;19795;53.160;6.612;2022-10-16T18:42:25;10.60;99.90
33460;DHT22;19795;53.160;6.612;2022-10-16T18:44:51;10.60;99.90
33460;DHT22;19795;53.160;6.612;2022-10-16T18:47:16;10.50;99.90
33460;DHT22;19795;53.160;6.612;2022-10-16T18:49:42;10.50;99.90
33460;DHT22;19795;53.160;6.612;2022-10-16T18:52:08;10.50;99.90
33460;DHT22;19795;53.160;6.612;2022-10-16T18:54:34;10.50;99.90
33460;DHT22;19795;53.160;6.612;2022-10-16T18:57:01;10.50;99.90
33460;DHT22;19795;53.160;6.612;2022-10-16T18:59:27;10.50;99.90
33460;DHT22;19795;53.160;6.612;2022-10-16T19:01:53;10.50;99.90
33460;DHT22;19795;53.160;6.612;2022-10-16T19:04:19;10.50;99.90
33460;DHT22;19795;53.160;6.612;2022-10-16T19:06:49;10.50;99.90
33460;DHT22;19795;53.160;6.612;2022-10-16T19:09:16;10.50;99.90
33460;DHT22;19795;53.160;6.612;2022-10-16T19:11:43;10.50;99.90
33460;DHT22;19795;53.160;6.612;2022-10-16T19:14:10;10.50;99.90
33460;DHT22;19795;53.160;6.612;2022-10-16T19:16:36;10.50;99.90
33460;DHT22;19795;53.160;6.612;2022-10-16T19:19:06;10.60;99.90
33460;DHT22;19795;53.160;6.612;2022-10-16T19:21:35;10.50;99.90
33460;DHT22;19795;53.160;6.612;2022-10-16T19:24:02;10.60;99.90
33460;DHT22;19795;53.160;6.612;2022-10-16T19:26:29;10.60;99.90
33460;DHT22;19795;53.160;6.612;2022-10-16T19:28:57;10.60;99.90
33460;DHT22;19795;53.160;6.612;2022-10-16T19:31:24;10.60;99.90
33460;DHT22;19795;53.160;6.612;2022-10-16T19:33:51;10.60;99.90
33460;DHT22;19795;53.160;6.612;2022-10-16T19:36:23;10.60;99.90
33460;DHT22;19795;53.160;6.612;2022-10-16T19:39:00;10.60;99.90
33460;DHT22;19795;53.160;6.612;2022-10-16T19:41:27;10.70;99.90
33460;DHT22;19795;53.160;6.612;2022-10-16T19:43:53;10.70;99.90
33460;DHT22;19795;53.160;6.612;2022-10-16T19:46:24;10.70;99.90
33460;DHT22;19795;53.160;6.612;2022-10-16T19:48:57;10.80;99.90
33460;DHT22;19795;53.160;6.612;2022-10-16T19:51:25;10.70;99.90
33460;DHT22;19795;53.160;6.612;2022-10-16T19:54:11;10.80;99.90
33460;DHT22;19795;53.160;6.612;2022-10-16T19:56:37;10.70;99.90
33460;DHT22;19795;53.160;6.612;2022-10-16T19:59:04;10.80;99.90
33460;DHT22;19795;53.160;6.612;2022-10-16T20:01:30;10.80;99.90
33460;DHT22;19795;53.160;6.612;2022-10-16T20:03:57;10.80;99.90
33460;DHT22;19795;53.160;6.612;2022-10-16T20:06:23;10.70;99.90
33460;DHT22;19795;53.160;6.612;2022-10-16T20:08:50;10.70;99.90
33460;DHT22;19795;53.160;6.612;2022-10-16T20:11:22;10.70;99.90
33460;DHT22;19795;53.160;6.612;2022-10-16T20:13:48;10.70;99.90
33460;DHT22;19795;53.160;6.612;2022-10-16T20:16:15;10.80;99.90
33460;DHT22;19795;53.160;6.612;2022-10-16T20:18:44;10.80;99.90
33460;DHT22;19795;53.160;6.612;2022-10-16T20:21:22;10.80;99.90
33460;DHT22;19795;53.160;6.612;2022-10-16T20:23:48;10.80;99.90
33460;DHT22;19795;53.160;6.612;2022-10-16T20:26:16;10.80;99.90
33460;DHT22;19795;53.160;6.612;2022-10-16T20:28:42;10.80;99.90
33460;DHT22;19795;53.160;6.612;2022-10-16T20:31:12;10.90;99.90
33460;DHT22;19795;53.160;6.612;2022-10-16T20:33:40;10.90;99.90
33460;DHT22;19795;53.160;6.612;2022-10-16T20:36:12;11.00;99.90
33460;DHT22;19795;53.160;6.612;2022-10-16T20:38:39;10.90;99.90
33460;DHT22;19795;53.160;6.612;2022-10-16T20:41:06;10.90;99.90
33460;DHT22;19795;53.160;6.612;2022-10-16T20:43:33;10.90;99.90
33460;DHT22;19795;53.160;6.612;2022-10-16T20:46:01;11.00;99.90
33460;DHT22;19795;53.160;6.612;2022-10-16T20:48:27;11.00;99.90
33460;DHT22;19795;53.160;6.612;2022-10-16T20:50:53;11.00;99.90
33460;DHT22;19795;53.160;6.612;2022-10-16T20:53:19;11.20;99.90
33460;DHT22;19795;53.160;6.612;2022-10-16T20:55:45;11.20;99.90
33460;DHT22;19795;53.160;6.612;2022-10-16T20:58:10;11.20;99.90
33460;DHT22;19795;53.160;6.612;2022-10-16T21:00:37;11.20;99.90
33460;DHT22;19795;53.160;6.612;2022-10-16T21:03:03;11.20;99.90
33460;DHT22;19795;53.160;6.612;2022-10-16T21:05:29;11.30;99.90
33460;DHT22;19795;53.160;6.612;2022-10-16T21:07:57;11.30;99.90
33460;DHT22;19795;53.160;6.612;2022-10-16T21:10:22;11.40;99.90
33460;DHT22;19795;53.160;6.612;2022-10-16T21:12:52;11.40;99.90
33460;DHT22;19795;53.160;6.612;2022-10-16T21:15:20;11.50;99.90
33460;DHT22;19795;53.160;6.612;2022-10-16T21:17:46;11.60;99.90
33460;DHT22;19795;53.160;6.612;2022-10-16T21:20:12;11.60;99.90
33460;DHT22;19795;53.160;6.612;2022-10-16T21:22:37;11.60;99.90
33460;DHT22;19795;53.160;6.612;2022-10-16T21:25:04;11.60;99.90
33460;DHT22;19795;53.160;6.612;2022-10-16T21:27:35;11.60;99.90
33460;DHT22;19795;53.160;6.612;2022-10-16T21:30:01;11.70;99.90
33460;DHT22;19795;53.160;6.612;2022-10-16T21:32:26;11.60;99.90
33460;DHT22;19795;53.160;6.612;2022-10-16T21:34:52;11.70;99.90
33460;DHT22;19795;53.160;6.612;2022-10-16T21:37:18;11.70;99.90
33460;DHT22;19795;53.160;6.612;2022-10-16T21:39:43;11.70;99.90
33460;DHT22;19795;53.160;6.612;2022-10-16T21:42:09;11.70;99.90
33460;DHT22;19795;53.160;6.612;2022-10-16T21:44:35;11.70;99.90
33460;DHT22;19795;53.160;6.612;2022-10-16T21:47:00;11.70;99.90
33460;DHT22;19795;53.160;6.612;2022-10-16T21:49:26;11.80;99.90
33460;DHT22;19795;53.160;6.612;2022-10-16T21:51:51;11.80;99.90
33460;DHT22;19795;53.160;6.612;2022-10-16T21:54:21;11.90;99.90
33460;DHT22;19795;53.160;6.612;2022-10-16T21:56:47;11.90;99.90
33460;DHT22;19795;53.160;6.612;2022-10-16T21:59:14;11.90;99.90
33460;DHT22;19795;53.160;6.612;2022-10-16T22:01:40;11.90;99.90
